createdAt,value
2023-11-12T00:03:19.976Z,100633.75
2023-11-12T00:08:37.625Z,100691.25
2023-11-12T00:13:27.704Z,100723.53
2023-11-12T00:18:15.152Z,100679.91
2023-11-12T00:23:04.034Z,100504.06
2023-11-12T00:27:54.385Z,100734.00
2023-11-12T00:32:41.890Z,100662.72
2023-11-12T00:37:29.128Z,100730.31
2023-11-12T00:42:16.192Z,100722.31
2023-11-12T00:47:05.999Z,100670.25
2023-11-12T00:51:54.004Z,100684.59
2023-11-12T00:56:41.119Z,100702.19
2023-11-12T01:01:28.218Z,100716.50
2023-11-12T01:06:19.090Z,100724.00
2023-11-12T01:11:09.062Z,100712.47
2023-11-12T01:15:56.387Z,100714.97
2023-11-12T01:20:44.450Z,100722.78
2023-11-12T01:25:35.081Z,100714.78
2023-11-12T01:30:52.208Z,100522.94
2023-11-12T01:35:41.158Z,100533.69
2023-11-12T01:40:28.422Z,100647.94
2023-11-12T01:45:18.301Z,100611.81
2023-11-12T01:50:08.003Z,100695.91
2023-11-12T01:54:56.887Z,100665.25
2023-11-12T01:59:44.119Z,100634.25
2023-11-12T02:04:33.900Z,100688.09
2023-11-12T02:09:21.149Z,100670.72
2023-11-12T02:14:08.778Z,100608.66
2023-11-12T02:18:56.016Z,100687.44
2023-11-12T02:23:45.800Z,100634.53
2023-11-12T02:28:32.833Z,100686.13
2023-11-12T02:33:20.075Z,100661.47
2023-11-12T02:38:07.294Z,100669.47
2023-11-12T02:42:57.017Z,100643.00
2023-11-12T02:47:44.237Z,100682.41
2023-11-12T02:52:31.330Z,100591.53
2023-11-12T02:57:18.527Z,100697.81
2023-11-12T03:02:08.368Z,100667.56
2023-11-12T03:06:55.571Z,100661.09
2023-11-12T03:11:42.726Z,100671.38
2023-11-12T03:16:29.792Z,100671.66
2023-11-12T03:21:19.667Z,100694.13
2023-11-12T03:26:06.940Z,100665.84
2023-11-12T03:30:54.182Z,100605.91
2023-11-12T03:35:41.623Z,100665.66
2023-11-12T03:40:31.381Z,100615.97
2023-11-12T03:45:18.561Z,100630.38
2023-11-12T03:50:06.641Z,100655.28
2023-11-12T03:54:53.800Z,100650.22
2023-11-12T03:59:43.544Z,100659.09
2023-11-12T04:04:30.747Z,100660.22
2023-11-12T04:09:18.043Z,100591.41
2023-11-12T04:14:05.582Z,100663.06
2023-11-12T04:18:56.216Z,100621.28
2023-11-12T04:23:43.729Z,100644.88
2023-11-12T04:28:30.913Z,100674.44
2023-11-12T04:33:18.606Z,100663.19
2023-11-12T04:38:08.424Z,100545.56
2023-11-12T04:42:55.522Z,100676.97
2023-11-12T04:47:42.694Z,100633.25
2023-11-12T04:52:29.822Z,100567.28
2023-11-12T04:57:19.607Z,100570.56
2023-11-12T05:02:06.887Z,100666.38
2023-11-12T05:06:54.146Z,100695.50
2023-11-12T05:11:41.302Z,100640.25
2023-11-12T05:16:31.178Z,100609.06
2023-11-12T05:21:18.348Z,100541.44
2023-11-12T05:26:05.615Z,100662.69
2023-11-12T05:30:52.934Z,100713.44
2023-11-12T05:35:42.678Z,100711.72
2023-11-12T05:40:29.740Z,100584.81
2023-11-12T05:45:18.422Z,100638.78
2023-11-12T05:50:07.016Z,100649.25
2023-11-12T05:55:12.794Z,100720.00
2023-11-12T06:00:00.345Z,100639.97
2023-11-12T06:04:49.365Z,100681.91
2023-11-12T06:09:38.227Z,100517.44
2023-11-12T06:14:28.334Z,100735.16
2023-11-12T06:19:15.804Z,100609.06
2023-11-12T06:24:03.450Z,100596.28
2023-11-12T06:28:58.371Z,100724.66
2023-11-12T06:33:48.288Z,100664.88
2023-11-12T06:38:35.471Z,100702.69
2023-11-12T06:43:22.609Z,100601.00
2023-11-12T06:48:09.764Z,100716.16
2023-11-12T06:53:00.990Z,100652.94
2023-11-12T06:57:48.284Z,100598.34
2023-11-12T07:02:35.549Z,100743.44
2023-11-12T07:07:22.787Z,100729.91
2023-11-12T07:12:12.854Z,100614.53
2023-11-12T07:17:02.635Z,100732.97
2023-11-12T07:21:49.773Z,100715.28
2023-11-12T07:26:45.912Z,100550.44
2023-11-12T07:31:39.018Z,100662.06
2023-11-12T07:36:26.444Z,100575.06
2023-11-12T07:41:13.561Z,100734.28
2023-11-12T07:46:01.018Z,100719.94
2023-11-12T07:50:50.714Z,100655.00
2023-11-12T07:55:37.873Z,100767.72
2023-11-12T08:00:25.212Z,100764.63
2023-11-12T08:05:12.405Z,100776.75
2023-11-12T08:10:02.276Z,100672.38
2023-11-12T08:14:49.449Z,100700.66
2023-11-12T08:19:36.820Z,100771.91
2023-11-12T08:24:24.064Z,100792.75
2023-11-12T08:29:13.914Z,100789.31
2023-11-12T08:34:01.039Z,100772.63
2023-11-12T08:38:48.164Z,100778.75
2023-11-12T08:43:35.421Z,100798.25
2023-11-12T08:48:25.216Z,100807.94
2023-11-12T09:20:09.767Z,100786.38
2023-11-12T09:25:09.083Z,100677.97
2023-11-12T09:30:01.061Z,100722.72
2023-11-12T09:34:48.385Z,100737.00
2023-11-12T09:39:40.509Z,100710.88
2023-11-12T09:45:03.505Z,100701.59
2023-11-12T09:49:48.300Z,100747.50
2023-11-12T09:54:41.640Z,100681.13
2023-11-12T09:59:31.961Z,100796.41
2023-11-12T10:04:22.223Z,100720.03
2023-11-12T10:09:10.184Z,100653.22
2023-11-12T10:14:03.664Z,100681.78
2023-11-12T10:18:52.599Z,100860.25
2023-11-12T10:23:41.812Z,100725.94
2023-11-12T10:28:34.939Z,100838.78
2023-11-12T10:33:30.403Z,100836.31
2023-11-12T10:43:57.814Z,100861.09
2023-11-12T10:48:49.617Z,100834.34
2023-11-12T10:53:38.901Z,100860.44
2023-11-12T10:58:32.517Z,100670.97
2023-11-12T11:03:20.020Z,100859.19
2023-11-12T11:08:09.865Z,100876.41
2023-11-12T11:12:57.228Z,100900.78
2023-11-12T11:17:44.474Z,100881.00
2023-11-12T11:22:32.455Z,100856.22
2023-11-12T11:27:22.902Z,100797.78
2023-11-12T11:32:13.856Z,100841.84
2023-11-12T11:37:01.116Z,100884.84
2023-11-12T11:42:12.813Z,100905.00
2023-11-12T11:47:10.560Z,100896.59
2023-11-12T11:51:57.802Z,100832.00
2023-11-12T11:56:45.284Z,100888.06
2023-11-12T12:01:42.578Z,100864.00
2023-11-12T12:06:35.018Z,100834.69
2023-11-12T12:11:22.203Z,100841.31
2023-11-12T12:16:09.609Z,100881.63
2023-11-12T12:20:57.249Z,100766.84
2023-11-12T12:25:55.390Z,100862.22
2023-11-12T12:30:52.089Z,100903.34
2023-11-12T12:35:39.896Z,100863.69
2023-11-12T12:40:27.631Z,100915.75
2023-11-12T12:45:18.252Z,100914.06
2023-11-12T12:50:25.357Z,100876.72
2023-11-12T12:55:16.300Z,100791.44
2023-11-12T13:00:03.975Z,100837.81
2023-11-12T13:04:54.655Z,100851.22
2023-11-12T13:10:00.589Z,100865.94
2023-11-12T13:14:51.769Z,100825.72
2023-11-12T13:19:39.187Z,100750.72
2023-11-12T13:35:00.660Z,100804.81
2023-11-12T13:39:51.165Z,100813.78
2023-11-12T13:44:39.583Z,100825.97
2023-11-12T14:42:29.301Z,100835.63
2023-11-12T14:47:16.623Z,100840.84
2023-11-12T14:52:09.347Z,100913.50
2023-11-12T14:57:06.263Z,100844.88
2023-11-12T15:01:56.096Z,100776.53
2023-11-12T15:06:43.342Z,100906.22
2023-11-12T15:11:30.713Z,100929.31
2023-11-12T15:16:21.720Z,100942.72
2023-11-12T15:21:11.632Z,100930.56
2023-11-12T15:25:59.156Z,100923.25
2023-11-12T15:30:46.446Z,100927.00
2023-11-12T15:35:34.234Z,100965.84
2023-11-12T15:40:24.609Z,100926.31
2023-11-12T15:45:13.532Z,100978.66
2023-11-12T15:50:00.881Z,100958.91
2023-11-12T15:54:48.284Z,100738.91
2023-11-12T15:59:41.157Z,100832.38
2023-11-12T16:04:28.620Z,100968.28
2023-11-12T16:09:15.959Z,100932.69
2023-11-12T16:14:05.537Z,100918.38
2023-11-12T16:19:03.861Z,100938.00
2023-11-12T16:23:51.156Z,100841.63
2023-11-12T16:28:39.348Z,100822.13
2023-11-12T16:33:28.936Z,100724.06
2023-11-12T16:38:20.257Z,100811.63
2023-11-12T16:43:07.715Z,100920.63
2023-11-12T16:47:54.950Z,100886.50
2023-11-12T16:52:45.845Z,100911.47
2023-11-12T16:57:35.759Z,100898.56
2023-11-12T17:02:23.190Z,100900.03
2023-11-12T17:07:10.422Z,100910.00
2023-11-12T17:11:57.668Z,100930.34
2023-11-12T17:16:50.737Z,100876.09
2023-11-12T17:21:39.924Z,100900.97
2023-11-12T17:26:27.130Z,100896.44
2023-11-12T17:31:14.478Z,100932.94
2023-11-12T17:36:04.774Z,100980.47
2023-11-12T17:40:52.034Z,100961.22
2023-11-12T17:45:39.248Z,100925.75
2023-11-12T17:50:28.962Z,100896.16
2023-11-12T17:55:28.640Z,100994.88
2023-11-12T18:00:19.773Z,100945.47
2023-11-12T18:05:11.882Z,101020.09
2023-11-12T18:09:59.797Z,101018.44
2023-11-12T18:14:54.851Z,100871.09
2023-11-12T18:19:42.195Z,100857.88
2023-11-12T18:24:31.820Z,100935.16
2023-11-12T18:29:19.146Z,100862.06
2023-11-12T18:34:09.405Z,100938.28
2023-11-12T18:38:59.783Z,100781.53
2023-11-12T18:43:47.018Z,100855.59
2023-11-12T18:48:34.619Z,100752.38
2023-11-12T18:53:24.861Z,100735.63
2023-11-12T18:58:12.218Z,100735.69
2023-11-12T19:02:59.393Z,100921.25
2023-11-12T19:07:47.064Z,100921.88
2023-11-12T19:12:37.751Z,100910.59
2023-11-12T19:17:25.314Z,100902.63
2023-11-12T19:22:12.789Z,100941.22
2023-11-12T19:27:00.127Z,100915.97
2023-11-12T19:31:49.964Z,100944.81
2023-11-12T19:36:39.766Z,100968.75
2023-11-12T19:41:27.091Z,100935.75
2023-11-12T19:46:14.451Z,100933.91
2023-11-12T19:51:06.163Z,100902.22
2023-11-12T19:55:59.010Z,100852.91
2023-11-12T20:00:46.326Z,100755.50
2023-11-12T20:05:33.634Z,100968.59
2023-11-12T20:10:26.619Z,100930.09
2023-11-12T20:15:16.546Z,100789.88
2023-11-12T20:20:04.575Z,100814.94
2023-11-12T20:24:51.914Z,100919.25
2023-11-12T20:29:41.730Z,100959.72
2023-11-12T20:34:28.912Z,100894.69
2023-11-12T20:39:16.245Z,100816.28
2023-11-12T20:44:03.474Z,100964.81
2023-11-12T20:49:23.710Z,100904.00
2023-11-12T20:54:18.678Z,100772.06
2023-11-12T20:59:05.846Z,100929.97
2023-11-12T21:03:55.803Z,100927.59
2023-11-12T21:08:43.346Z,100835.06
2023-11-12T21:13:30.578Z,100802.44
2023-11-12T21:18:17.833Z,100776.84
2023-11-12T21:23:07.804Z,100900.94
2023-11-12T21:28:02.964Z,100740.91
2023-11-12T21:33:04.442Z,100734.09
2023-11-12T21:37:59.201Z,100944.59
2023-11-12T21:42:53.250Z,100970.28
2023-11-12T21:47:41.408Z,100869.47
2023-11-12T21:52:44.361Z,100970.16
2023-11-12T21:57:32.273Z,100972.00
2023-11-12T22:02:34.256Z,100997.84
2023-11-12T22:07:24.918Z,100814.06
2023-11-12T22:12:12.843Z,100806.06
2023-11-12T22:17:00.063Z,100876.16
2023-11-12T22:21:55.933Z,100977.47
2023-11-12T22:27:03.705Z,100754.03
2023-11-12T22:32:05.497Z,100811.47
2023-11-12T22:37:00.304Z,100764.81
2023-11-12T22:41:49.560Z,100847.25
2023-11-12T22:46:37.058Z,100871.19
2023-11-12T22:51:24.701Z,100846.97
2023-11-12T22:56:14.647Z,100878.06
2023-11-12T23:01:01.951Z,100890.31
2023-11-12T23:05:50.039Z,100948.34
2023-11-12T23:10:38.649Z,100879.38
2023-11-12T23:15:28.488Z,100947.84
2023-11-12T23:20:16.130Z,100848.38
2023-11-12T23:25:03.526Z,100936.66
2023-11-12T23:29:50.763Z,100853.50
2023-11-12T23:34:40.588Z,100837.44
2023-11-12T23:39:27.929Z,100853.31
2023-11-12T23:44:15.159Z,100918.56
2023-11-12T23:49:02.473Z,100679.53
2023-11-12T23:53:52.661Z,100688.72
2023-11-12T23:58:39.989Z,100785.59
